Ballard, WV (24918)

1:19 PM EDT on August 30, 2015 (GMT -0400)
ADAIR RIDGE ROAD | | Change Station
CLOSE
Current Station
Personal Weather Station
Location: Ballard, WV
Elevation: 2053 ft
Nearby Weather Stations

Elev 2053 ft 37.50 °N, 80.78 °W | Updated 13 seconds ago

Mostly Cloudy
Mostly Cloudy
74.9 °F
Feels Like 77 °F
N
0.4
Wind Variable Wind from East
Gusts 0.4 mph

Today
High -- | Low -- °F
--% Chance of Precip.
Yesterday
High -- | Low -- °F
Precip. -- in
6:51 AM 7:55 PM
Full, 99% visible
Pressure 30.25 in
Visibility 10.0 miles
Clouds Scattered Clouds 1800 ft
Scattered Clouds 2400 ft
Scattered Clouds 2900 ft
Heat Index 77 °F
Dew Point 64 °F
Humidity 69%
Rainfall 0.00 in
Snow Depth Not available.
UV 8 out of 12
Pollen 8.70 out of 12
Air Quality Not available.
Flu Activity Not available.
METAR KPSK 301655Z AUTO 00000KT 10SM SCT018 SCT024 SCT029 25/17 A3025 RMK AO2 T02500167
Pressure 30.25 in
Visibility 10.0 miles
Clouds Scattered Clouds 1800 ft
Scattered Clouds 2400 ft
Scattered Clouds 2900 ft
Heat Index 77 °F
Dew Point 64 °F
Humidity 69%
Rainfall 0.00 in
Snow Depth Not available.
UV 8 out of 12
Pollen 8.70 out of 12
Air Quality Not available.
Flu Activity Not available.
METAR KPSK 301655Z AUTO 00000KT 10SM SCT018 SCT024 SCT029 25/17 A3025 RMK AO2 T02500167

10-Day Weather Forecast

×

Almanac

Astronomy

Aug. 30, 2015 Rise Set
Actual Time
Civil Twilight
Nautical Twilight
Astronomical Twilight
Moon
Length of Visible Light
Length of Day
Tomorrow will be .
, % of the Moon is Illuminated

Today's Extremes

State Highs State Lows

Community

WunderPhotos

Upload Photos

1,851,014 photos uploaded!

WunderBlogs® & News

Nearby

Air Quality

  Air Quality AQ Index Pollutant
Not available.

Snow Depth

Station Depth Elevation

Earthquake Activity

City Distance Mag. Time & Date
Minimum magnitude displayed is 2.5.

Coastal Water Temperatures

Place Temperature

Stations

Nearby Weather Stations

Station Location Temp. Windchill Dew Point Humidity Wind Precip. Elev Updated Type